Portada
METAR-TAF:

METAR-TAF

Aeropuertos :

Singapur, Singapur

latitud: 01-22N, longitud: 103-55E, altitud: 18 m

Observación

El informe se hizo hace 29 minutos, a las 15:00 UTC
Viento 11 kt del norte-noreste
Temperatura 28°C
Humedad 79%
Presión 1011 hPa
Visibilidad 10 km o más
Escasas nubes a una altura de 1800 ft
Nubes dispersas a una altura de 35000 ft

METAR: WSAP 261500Z 02011KT 9999 FEW018 SCT350 28/24 Q1011

Hora: 23:29 (15:29 UTC)

Pronóstico

El informe se hizo hace 4 horas y 29 minutos, a las 11:00 UTC
Pronóstico válido del 26 a las 12 UTC al 27 a las 18 UTC
Viento 10 kt del norte-noreste
Visibilidad 10 km o más
Escasas nubes a una altura de 1500 ft
Nubes dispersas a una altura de 2000 ft
Temporalmente
del 27 a las 06 UTC al 27 a las 10 UTC
Viento 15 kt del norte-noreste con ráfagas de 25 kt

TAF: WSAP 261100Z 2612/2718 03010KT 9999 FEW015 SCT020 TEMPO 2706/2710 03015G25KT

Observaciones y pronósticos meteorológicos de más de 4000 aeropuertos (mensajes METAR y TAF).

Los puntos amarillos y rojos representan las estaciones disponibles.

Ponga el ratón en el punto deseado para ver el nombre de la estación.

Haga clic para ver las observaciones y los pronósticos meteorológicos.

Para cambiar el mapa : haga clic en los botones verdes con una cruz de color negro para hacer un zoom, en el botón verde con un guión para alejar o en las flechas verdes para mapas adyacentes.


METAR-TAF: